עמוד ראשי
METAR-TAF:

METAR-TAF

שדות תעופה :

גזיאנטפ, טורקיה

קו רוחב: 37-05N, קו אורך: 037-22E, גובה: 701מטר

תצפית מזג אוויר נוכחית

הדו"ח נערך לפני 30דקות, בשעה 10:50 UTC
רוח 10קשר מכיוון צפון-מערב, משתנה בין מערב ו צפון
טמפרטורת 39 צלסיוס
לחות 12%
לחץ 1005 hPa
ראות 10 קילומטר או יותר
מעט עננים בגובה 4000רגל

METAR: LTAJ 251050Z 31010KT 270V010 9999 FEW040 39/04 Q1005 NOSIG

זמן: 14:20 (11:20 UTC)

תחזית

הדו"ח נערך לפני 6 שעות ו 40דקות, בשעה 04:40 UTC
תחזית בתוקף מ 25 ב 06 UTC עד 26 ב 06 UTC
רוח 2קשר עם כיוונים משתנים
ראות 10 קילומטר או יותר
ללא עננים שבסיסם נמוך מ 5000 רגל או קומולונימבוס
יעשה מ
25 ב 08 UTC עד 25 ב 11 UTC
רוח 13קשר מכיוון מערב
מעט עננים בגובה 4000רגל
זמנית מ -
25 ב 12 UTC עד 25 ב 16 UTC
רוח 15קשר מכיוון מערב עם משבים עד 25קשר
יעשה מ
25 ב 16 UTC עד 25 ב 18 UTC
רוח 12קשר מכיוון צפון/צפון-מערב
ראות 10 קילומטר או יותר
ללא עננים שבסיסם נמוך מ 5000 רגל או קומולונימבוס

TAF: LTAJ 250440Z 2506/2606 VRB02KT CAVOK BECMG 2508/2511 27013KT FEW040 TEMPO 2512/2516 26015G25KT BECMG 2516/2518 33012KT CAVOK

תצפיות ותחזיות מזג אוויר לגבי יותר מ- 4,000 שדות תעופה ברחבי העולם. דוחות METAR ו- TAF.

התחנות הזמינות מסומנות בנקודות צהובות ואדומות על גבי המפה.

העבר את העכבר לנקודה הצבעונית על מנת לראות את שם התחנה.

לאחר מכן, לחץ כדי לראות את תוכן ואת תחזיות מזג האוויר.

כדי לשנות את המפה: לחץ על הכפתורים הירוקים עם הפלוס השחור כדי להתקרב; על הכפתור הירוק עם המקף כדי להתרחק; או בחיצים הירוקים למפות סמוכות.


METAR-TAF: